Time;durP1;ratioP1;P1;durP2;ratioP2;P2;SDS_P1;SDS_P2;PMS_P1;PMS_P2;Temp;Humidity;BMP_temperature;BMP_pressure;BME280_temperature;BME280_humidity;BME280_pressure;Samples;Min_cycle;Max_cycle;Signal;HPM_P1;HPM_P2
2021/08/12 00:01:41;;;;;;;;;19.75;16.00;;;;;23.19;100.00;101648.72;5119152;27;45211;-67
2021/08/12 00:04:07;;;;;;;;;19.75;18.50;;;;;23.13;100.00;101643.72;5100527;27;45407;-67
2021/08/12 00:06:32;;;;;;;;;18.75;16.25;;;;;23.11;100.00;101638.47;5119232;27;45257;-68
2021/08/12 00:08:57;;;;;;;;;6.75;6.00;;;;;23.11;100.00;101638.47;5119118;27;45422;-66
2021/08/12 00:11:23;;;;;;;;;17.00;15.75;;;;;23.15;100.00;101641.81;5118954;27;45235;-67
2021/08/12 00:13:48;;;;;;;;;18.50;16.00;;;;;23.13;100.00;101639.25;5119168;27;45212;-67
2021/08/12 00:16:14;;;;;;;;;17.00;16.25;;;;;23.09;100.00;101634.16;5119361;27;45406;-68
2021/08/12 00:18:42;;;;;;;;;20.50;18.00;;;;;23.06;100.00;101639.63;5118747;27;47019;-67
2021/08/12 00:24:29;;;;;;;;;17.25;16.00;;;;;23.01;100.00;101653.19;5118881;27;45324;-67
2021/08/12 00:26:55;;;;;;;;;15.25;14.75;;;;;22.98;100.00;101647.16;5119041;27;45223;-67
2021/08/12 00:29:20;;;;;;;;;15.00;15.00;;;;;22.91;100.00;101634.16;5118798;27;46585;-67
2021/08/12 00:31:47;;;;;;;;;19.75;17.75;;;;;22.92;100.00;101633.22;5118529;27;45329;-67
2021/08/12 00:34:12;;;;;;;;;15.00;14.00;;;;;22.86;100.00;101624.69;5118676;27;45288;-67
2021/08/12 00:36:37;;;;;;;;;15.50;15.00;;;;;22.86;100.00;101625.56;5118749;27;45329;-66
2021/08/12 00:39:03;;;;;;;;;17.00;14.25;;;;;22.87;100.00;101627.28;5118357;27;46746;-67
2021/08/12 00:41:35;;;;;;;;;14.25;13.25;;;;;22.81;100.00;101619.59;5118318;27;45351;-67
2021/08/12 00:44:00;;;;;;;;;17.00;17.00;;;;;22.73;100.00;101611.09;5118564;27;45377;-66
2021/08/12 00:46:26;;;;;;;;;13.25;10.25;;;;;22.72;100.00;101628.03;5118701;27;45486;-67
2021/08/12 00:48:51;;;;;;;;;17.25;17.00;;;;;22.67;100.00;101619.41;5118538;27;46593;-67
2021/08/12 00:54:39;;;;;;;;;17.00;16.00;;;;;22.66;100.00;101614.16;5118380;27;45217;-67
2021/08/12 00:57:05;;;;;;;;;17.00;16.75;;;;;22.66;100.00;101614.16;5118651;27;45464;-67
2021/08/12 00:59:40;;;;;;;;;16.50;16.00;;;;;22.60;100.00;101610.00;5118391;27;45462;-67
2021/08/12 01:02:13;;;;;;;;;15.25;14.50;;;;;22.57;100.00;101604.81;5118483;27;45596;-67
2021/08/12 01:04:41;;;;;;;;;16.25;14.00;;;;;22.48;100.00;101599.97;5118223;27;45357;-68
2021/08/12 01:07:32;;;;;;;;;16.25;15.00;;;;;22.58;100.00;101620.72;5118569;27;45522;-68
2021/08/12 01:10:23;;;;;;;;;15.75;15.00;;;;;22.53;100.00;101614.78;5118134;27;47223;-67
2021/08/12 01:13:11;;;;;;;;;14.75;13.00;;;;;22.44;100.00;101614.38;5118312;27;45404;-67
2021/08/12 01:15:47;;;;;;;;;14.00;14.00;;;;;22.43;100.00;101623.31;5118314;27;45288;-67
2021/08/12 01:18:19;;;;;;;;;14.75;13.75;;;;;22.36;100.00;101621.88;5118231;27;45471;-67
2021/08/12 01:21:15;;;;;;;;;17.75;15.25;;;;;22.28;100.00;101617.78;5117804;27;46422;-67
2021/08/12 01:23:41;;;;;;;;;14.00;12.75;;;;;22.27;100.00;101623.19;5117867;27;45284;-67
2021/08/12 01:26:09;;;;;;;;;18.00;15.50;;;;;22.15;100.00;101616.66;5118220;27;45305;-67
2021/08/12 01:28:41;;;;;;;;;19.25;16.75;;;;;22.18;100.00;101623.63;5118091;27;45493;-67
2021/08/12 01:31:34;;;;;;;;;16.00;14.75;;;;;21.99;100.00;101599.69;5117902;27;46337;-67
2021/08/12 01:37:24;;;;;;;;;18.00;16.00;;;;;22.03;100.00;101617.22;5117693;27;45364;-67
2021/08/12 01:39:52;;;;;;;;;19.50;17.00;;;;;21.97;100.00;101621.06;5118044;27;45413;-67
2021/08/12 01:42:18;;;;;;;;;17.25;16.50;;;;;21.95;100.00;101627.34;5117578;27;46447;-68
2021/08/12 01:44:45;;;;;;;;;18.25;16.00;;;;;21.88;100.00;101623.25;5117598;27;45347;-67
2021/08/12 01:47:13;;;;;;;;;18.00;16.00;;;;;21.89;100.00;101630.31;5118889;27;45345;-67
2021/08/12 01:53:02;;;;;;;;;15.00;15.00;;;;;21.73;100.00;101627.53;5121032;27;45229;-68
2021/08/12 01:55:31;;;;;;;;;16.00;14.50;;;;;21.68;100.00;101627.72;5120818;27;45521;-68
2021/08/12 01:57:58;;;;;;;;;16.75;15.25;;;;;21.64;100.00;101631.44;5121082;27;45217;-68
2021/08/12 02:00:25;;;;;;;;;18.00;15.50;;;;;21.58;100.00;101623.78;5121254;27;45267;-68
2021/08/12 02:02:51;;;;;;;;;15.00;14.00;;;;;21.54;100.00;101626.66;5120488;27;47333;-68
2021/08/12 02:08:38;;;;;;;;;14.00;14.00;;;;;21.45;100.00;101630.56;5121043;27;45265;-68
2021/08/12 02:11:03;;;;;;;;;13.00;12.50;;;;;21.35;100.00;101630.13;5121003;27;45199;-67
2021/08/12 02:13:29;;;;;;;;;14.75;14.00;;;;;21.31;100.00;101633.84;5120962;27;46343;-67
2021/08/12 02:15:54;;;;;;;;;14.25;13.25;;;;;21.21;100.00;101631.63;5120583;27;45296;-68
2021/08/12 02:18:20;;;;;;;;;14.50;12.50;;;;;21.22;100.00;101630.69;5120801;27;45273;-68
2021/08/12 02:24:13;;;;;;;;;15.00;14.00;;;;;21.11;100.00;101631.19;5120468;27;45258;-68
2021/08/12 02:26:47;;;;;;;;;14.50;14.50;;;;;21.06;100.00;101634.06;5120506;27;45561;-68
2021/08/12 02:29:14;;;;;;;;;15.25;14.50;;;;;20.99;100.00;101621.94;5120666;27;45379;-68
2021/08/12 02:31:44;;;;;;;;;15.00;14.00;;;;;20.97;100.00;101621.16;5120732;27;45300;-68
2021/08/12 02:34:11;;;;;;;;;17.00;13.50;;;;;20.98;100.00;101630.84;5120214;27;46238;-67
2021/08/12 02:36:38;;;;;;;;;12.50;12.00;;;;;20.89;100.00;101631.25;5098909;27;45556;-67
2021/08/12 02:39:05;;;;;;;;;15.50;14.25;;;;;20.90;100.00;101634.78;5099861;27;45378;-68
2021/08/12 02:41:32;;;;;;;;;14.00;12.00;;;;;20.81;100.00;101628.03;5099928;27;45306;-67
2021/08/12 02:43:58;;;;;;;;;14.25;12.50;;;;;20.80;100.00;101635.16;5099540;27;46719;-66
2021/08/12 02:46:26;;;;;;;;;16.75;14.25;;;;;20.77;100.00;101615.84;5099961;27;45426;-66
2021/08/12 02:48:54;;;;;;;;;13.00;10.50;;;;;20.84;100.00;101632.38;5099693;27;45345;-67
2021/08/12 02:54:43;;;;;;;;;15.50;14.25;;;;;20.83;100.00;101630.66;5099376;27;45762;-67
2021/08/12 02:57:10;;;;;;;;;14.75;12.75;;;;;20.77;100.00;101619.34;5099380;27;45366;-66
2021/08/12 02:59:36;;;;;;;;;17.75;15.25;;;;;20.76;100.00;101616.75;5099240;27;45336;-67
2021/08/12 03:02:03;;;;;;;;;14.00;11.75;;;;;20.86;100.00;101641.16;5081511;27;45382;-67
2021/08/12 03:04:29;;;;;;;;;12.00;12.00;;;;;20.84;100.00;101635.91;5099530;27;45637;-67
2021/08/12 03:06:57;;;;;;;;;11.75;11.00;;;;;20.87;100.00;101641.09;5099305;27;45366;-66
2021/08/12 03:09:25;;;;;;;;;14.50;12.75;;;;;20.86;100.00;101633.19;5099747;27;45439;-66
2021/08/12 03:11:53;;;;;;;;;16.50;15.25;;;;;20.86;100.00;101626.09;5099499;27;45476;-66
2021/08/12 03:14:19;;;;;;;;;12.50;12.25;;;;;20.68;100.00;101603.84;5099026;27;47005;-65
2021/08/12 03:16:45;;;;;;;;;18.75;13.00;;;;;20.82;100.00;101623.59;5099518;27;45311;-67
2021/08/12 03:19:10;;;;;;;;;16.25;13.50;;;;;20.78;100.00;101628.19;5099137;27;45378;-67
2021/08/12 03:24:57;;;;;;;;;13.50;12.25;;;;;20.75;100.00;101625.66;5099057;27;45627;-68
2021/08/12 03:27:23;;;;;;;;;17.75;12.50;;;;;20.65;100.00;101614.59;5098914;27;45256;-68
2021/08/12 03:29:50;;;;;;;;;14.50;13.00;;;;;20.63;100.00;101616.44;5099176;27;45275;-67
2021/08/12 03:32:17;;;;;;;;;16.00;14.75;;;;;20.66;100.00;101629.56;5099285;27;45427;-67
2021/08/12 03:34:42;;;;;;;;;13.00;12.25;;;;;20.66;100.00;101631.38;5080528;27;46717;-68
2021/08/12 03:37:08;;;;;;;;;13.00;12.00;;;;;20.63;100.00;101627.06;5105845;27;45446;-67
2021/08/12 03:39:33;;;;;;;;;15.75;12.50;;;;;20.66;100.00;101628.72;5119489;27;45728;-67
2021/08/12 03:41:59;;;;;;;;;12.50;11.75;;;;;20.66;100.00;101626.06;5119578;27;45484;-68
2021/08/12 03:44:24;;;;;;;;;11.00;11.00;;;;;20.66;100.00;101624.28;5119171;27;46041;-66
2021/08/12 03:46:50;;;;;;;;;14.25;13.00;;;;;20.62;100.00;101613.84;5119220;27;45386;-66
2021/08/12 03:49:16;;;;;;;;;14.00;13.50;;;;;20.65;100.00;101614.59;5119510;27;45287;-66
2021/08/12 03:55:03;;;;;;;;;13.00;11.50;;;;;20.64;100.00;101614.66;5118923;27;45775;-66
2021/08/12 03:57:28;;;;;;;;;14.75;12.25;;;;;20.64;100.00;101614.66;5119097;27;45292;-67
2021/08/12 03:59:54;;;;;;;;;15.00;13.50;;;;;20.63;100.00;101610.28;5119166;27;45337;-67
2021/08/12 04:02:19;;;;;;;;;12.25;12.25;;;;;20.65;100.00;101611.94;5119261;27;45357;-67
2021/08/12 04:04:44;;;;;;;;;14.75;13.25;;;;;20.62;100.00;101604.09;5118811;27;45426;-67
2021/08/12 04:07:10;;;;;;;;;13.75;13.00;;;;;20.62;100.00;101604.09;5119163;27;45350;-67
2021/08/12 04:09:36;;;;;;;;;12.00;12.00;;;;;20.65;100.00;101603.09;5099777;27;45250;-67
2021/08/12 04:12:02;;;;;;;;;11.75;11.25;;;;;20.61;100.00;101599.72;5119433;27;45299;-68
2021/08/12 04:14:28;;;;;;;;;12.00;12.00;;;;;20.63;100.00;101597.00;5119015;27;45424;-68
2021/08/12 04:16:53;;;;;;;;;16.75;12.25;;;;;20.64;100.00;101594.28;5118979;27;45251;-68
2021/08/12 04:19:19;;;;;;;;;14.00;12.00;;;;;20.56;100.00;101585.75;5119162;27;45273;-66
2021/08/12 04:25:06;;;;;;;;;18.50;14.75;;;;;20.62;100.00;101585.53;5118572;27;45330;-68
2021/08/12 04:27:31;;;;;;;;;16.00;15.00;;;;;20.65;100.00;101603.09;5118975;27;45264;-66
2021/08/12 04:29:56;;;;;;;;;14.50;14.00;;;;;20.56;100.00;101588.41;5118850;27;45331;-67
2021/08/12 04:32:22;;;;;;;;;15.25;14.25;;;;;20.54;100.00;101578.81;5119079;27;45372;-67
2021/08/12 04:34:47;;;;;;;;;11.00;11.00;;;;;20.57;100.00;101583.97;5118388;27;46976;-68
2021/08/12 04:37:12;;;;;;;;;13.75;13.50;;;;;20.47;100.00;101587.03;5118474;27;45291;-68
2021/08/12 04:39:38;;;;;;;;;12.00;11.00;;;;;20.49;100.00;101590.47;5118785;27;45754;-68
2021/08/12 04:42:03;;;;;;;;;13.00;12.00;;;;;20.47;100.00;101592.34;5119137;27;45345;-67
2021/08/12 04:44:29;;;;;;;;;12.00;12.00;;;;;20.45;100.00;101586.22;5118439;27;45430;-68
2021/08/12 04:46:54;;;;;;;;;11.75;11.00;;;;;20.45;100.00;101580.94;5118722;27;45304;-67
2021/08/12 04:49:19;;;;;;;;;13.50;13.00;;;;;20.50;100.00;101586.03;5099972;27;45257;-67
2021/08/12 04:55:10;;;;;;;;;10.75;9.25;;;;;20.47;100.00;101581.72;5118231;27;45802;-67
2021/08/12 04:57:35;;;;;;;;;13.50;13.00;;;;;20.53;100.00;101595.66;5118602;27;45353;-68
2021/08/12 05:00:01;;;;;;;;;14.75;13.00;;;;;20.56;100.00;101590.22;5118732;27;45503;-68
2021/08/12 05:02:26;;;;;;;;;14.25;12.50;;;;;20.58;100.00;101577.75;5118602;27;45307;-67
2021/08/12 05:04:52;;;;;;;;;13.25;13.00;;;;;20.61;100.00;101583.81;5117824;27;47170;-68
2021/08/12 05:07:18;;;;;;;;;15.50;12.50;;;;;20.61;100.00;101582.94;5118036;27;45351;-67
2021/08/12 05:09:43;;;;;;;;;12.50;12.00;;;;;20.63;100.00;101586.38;5118538;27;45388;-67
2021/08/12 05:12:09;;;;;;;;;16.25;15.50;;;;;20.69;100.00;101581.69;5118238;27;45366;-67
2021/08/12 05:14:34;;;;;;;;;13.00;12.00;;;;;20.69;100.00;101583.47;5118056;27;46325;-67
2021/08/12 05:17:00;;;;;;;;;13.75;13.00;;;;;20.74;100.00;101584.13;5117948;27;45430;-67
2021/08/12 05:19:25;;;;;;;;;13.25;11.50;;;;;20.78;100.00;101586.56;5118360;27;45311;-67
2021/08/12 05:25:12;;;;;;;;;11.50;10.75;;;;;20.84;100.00;101589.91;5121611;27;45350;-68
2021/08/12 05:27:37;;;;;;;;;14.75;12.00;;;;;20.87;100.00;101592.44;5121253;27;45342;-68
2021/08/12 05:30:04;;;;;;;;;16.50;15.50;;;;;20.93;100.00;101593.03;5121559;27;45312;-68
2021/08/12 05:32:29;;;;;;;;;14.75;13.00;;;;;20.91;100.00;101592.22;5121489;27;45345;-68
2021/08/12 05:34:54;;;;;;;;;14.50;12.50;;;;;21.04;100.00;101613.78;5121174;27;47270;-68
2021/08/12 05:37:20;;;;;;;;;14.00;13.50;;;;;21.08;100.00;101616.25;5121286;27;45371;-68
2021/08/12 05:39:45;;;;;;;;;13.25;12.25;;;;;21.10;100.00;101602.91;5121775;27;45375;-68
2021/08/12 05:42:10;;;;;;;;;13.75;13.00;;;;;21.14;100.00;101606.28;5121512;27;45447;-68
2021/08/12 05:44:36;;;;;;;;;16.00;14.00;;;;;21.08;100.00;101592.34;5121371;27;45492;-68
2021/08/12 05:47:01;;;;;;;;;13.75;12.00;;;;;21.22;100.00;101612.97;5121500;27;45310;-69
2021/08/12 05:49:27;;;;;;;;;15.00;12.50;;;;;21.30;100.00;101618.00;5121135;27;45367;-68
2021/08/12 05:55:13;;;;;;;;;16.00;14.50;;;;;21.35;100.00;101613.31;5120880;27;45362;-68
2021/08/12 05:57:39;;;;;;;;;14.75;14.75;;;;;21.41;100.00;101621.00;5121231;27;45477;-68
2021/08/12 06:00:05;;;;;;;;;17.50;14.75;;;;;21.21;100.00;101573.19;5120998;27;45326;-69
2021/08/12 06:02:32;;;;;;;;;16.00;14.00;;;;;21.39;100.00;101601.63;5121447;27;45235;-68
2021/08/12 06:04:57;;;;;;;;;16.25;14.50;;;;;21.43;100.00;101605.88;5120650;27;46512;-68
2021/08/12 06:07:23;;;;;;;;;15.00;14.75;;;;;21.38;100.00;101586.63;5121174;27;45277;-68
2021/08/12 06:09:48;;;;;;;;;16.00;15.25;;;;;21.54;100.00;101611.56;5121225;27;45202;-68
2021/08/12 06:12:13;;;;;;;;;16.50;15.00;;;;;21.49;100.00;101610.88;5120960;27;45508;-67
2021/08/12 06:14:39;;;;;;;;;17.25;15.75;;;;;21.59;100.00;101612.22;5120675;27;45243;-68
2021/08/12 06:17:04;;;;;;;;;17.50;15.50;;;;;21.65;100.00;101614.56;5120900;27;45263;-67
2021/08/12 06:19:30;;;;;;;;;17.00;16.75;;;;;21.64;100.00;101599.56;5121086;27;45283;-67
2021/08/12 06:25:17;;;;;;;;;15.75;14.25;;;;;21.71;100.00;101616.94;5120579;27;45636;-68
2021/08/12 06:27:43;;;;;;;;;14.75;14.75;;;;;21.75;100.00;101619.47;5120768;27;45367;-67
2021/08/12 06:30:11;;;;;;;;;18.75;17.50;;;;;21.78;100.00;101616.66;5120637;27;45275;-67
2021/08/12 06:32:37;;;;;;;;;18.75;16.75;;;;;21.79;100.00;101619.25;5120397;27;45433;-68
2021/08/12 06:35:04;;;;;;;;;19.75;17.00;;;;;21.79;100.00;101607.75;5120435;27;46172;-68
2021/08/12 06:37:32;;;;;;;;;14.00;13.50;;;;;21.83;100.00;101610.19;5120315;27;45760;-68
2021/08/12 06:39:58;;;;;;;;;17.25;16.00;;;;;21.93;100.00;101607.94;5120609;27;45363;-68
2021/08/12 06:42:23;;;;;;;;;20.25;16.00;;;;;22.06;100.00;101619.78;5136549;27;45436;-68
2021/08/12 06:44:48;;;;;;;;;21.25;19.50;;;;;22.14;100.00;101630.88;5120105;27;46488;-68
2021/08/12 06:47:14;;;;;;;;;17.00;15.50;;;;;22.15;100.00;101616.66;5120379;27;45299;-69
2021/08/12 06:49:39;;;;;;;;;18.50;17.25;;;;;22.27;100.00;101631.16;5120424;27;45306;-68
2021/08/12 06:55:26;;;;;;;;;23.75;20.50;;;;;22.43;100.00;101631.28;5119943;27;45658;-68
2021/08/12 06:57:51;;;;;;;;;18.75;18.50;;;;;22.47;100.00;101624.88;5136070;27;45295;-65
2021/08/12 07:00:17;;;;;;;;;19.25;16.75;;;;;22.53;100.00;101625.41;5120284;27;45408;-66
2021/08/12 07:02:42;;;;;;;;;17.00;17.00;;;;;22.58;100.00;101634.03;5120285;27;45206;-66
2021/08/12 07:05:08;;;;;;;;;18.75;17.50;;;;;22.61;100.00;101625.03;5119785;27;47203;-67
2021/08/12 07:07:34;;;;;;;;;19.00;17.75;;;;;22.71;100.00;101628.09;5119929;27;45269;-67
2021/08/12 07:09:59;;;;;;;;;21.75;18.25;;;;;22.77;100.00;101617.13;5120239;27;45272;-67
2021/08/12 07:12:24;;;;;;;;;17.75;17.00;;;;;22.83;100.00;101608.84;5120353;27;45163;-67
2021/08/12 07:14:50;;;;;;;;;19.50;16.50;;;;;22.96;100.00;101609.09;5119805;27;45747;-66
2021/08/12 07:17:15;;;;;;;;;18.25;16.75;;;;;23.01;100.00;101599.06;5119991;27;45224;-68
2021/08/12 07:19:41;;;;;;;;;21.25;18.00;;;;;23.16;100.00;101611.56;5119768;27;45434;-68
2021/08/12 07:25:28;;;;;;;;;19.25;17.00;;;;;23.20;100.00;101599.81;5119437;27;45389;-68
2021/08/12 07:27:53;;;;;;;;;15.50;14.25;;;;;23.32;100.00;101603.63;5119716;27;45388;-68
2021/08/12 07:30:19;;;;;;;;;20.50;17.50;;;;;23.40;100.00;101609.41;5119890;27;45316;-68
2021/08/12 07:32:44;;;;;;;;;19.25;16.75;;;;;23.49;100.00;101600.91;5119945;27;45269;-68
2021/08/12 07:35:10;;;;;;;;;16.00;14.75;;;;;23.50;100.00;101598.13;5119544;27;45256;-68
2021/08/12 07:37:35;;;;;;;;;17.50;15.25;;;;;23.61;100.00;101604.75;5119441;27;45666;-68
2021/08/12 07:40:02;;;;;;;;;17.25;16.00;;;;;23.67;100.00;101607.06;5119679;27;45323;-68
2021/08/12 07:42:28;;;;;;;;;17.00;15.75;;;;;23.77;100.00;101619.81;5119564;27;45401;-68
2021/08/12 07:44:53;;;;;;;;;19.00;16.50;;;;;23.88;100.00;101613.00;5118256;27;46175;-67
2021/08/12 07:47:18;;;;;;;;;19.25;15.00;;;;;23.97;100.00;101615.16;5119218;27;45424;-68
2021/08/12 07:49:44;;;;;;;;;17.25;15.50;;;;;24.09;100.00;101610.00;5119485;27;45293;-68
2021/08/12 07:55:31;;;;;;;;;15.00;13.50;;;;;24.45;100.00;101608.88;5118978;27;45366;-66
2021/08/12 07:57:57;;;;;;;;;14.00;13.75;;;;;24.59;100.00;101600.88;5118820;27;45315;-68
2021/08/12 08:00:22;;;;;;;;;13.50;13.00;;;;;24.72;100.00;101601.91;5119218;27;45367;-67
2021/08/12 08:02:48;;;;;;;;;13.25;13.00;;;;;24.83;100.00;101584.34;5119578;27;45429;-67
2021/08/12 08:05:19;;;;;;;;;13.75;12.00;;;;;24.89;100.00;101576.81;5119151;27;45486;-67
2021/08/12 08:07:45;;;;;;;;;16.00;14.00;;;;;25.18;100.00;101593.78;5118966;27;45305;-67
2021/08/12 08:10:11;;;;;;;;;14.75;13.50;;;;;25.35;100.00;101598.09;5119008;27;45403;-66
2021/08/12 08:12:38;;;;;;;;;13.50;12.50;;;;;25.46;100.00;101592.06;5119435;27;45403;-66
2021/08/12 08:15:04;;;;;;;;;11.75;10.00;;;;;25.60;100.00;101592.91;5118866;27;45698;-67
2021/08/12 08:17:29;;;;;;;;;11.25;11.00;;;;;25.73;100.00;101584.13;5118997;27;45347;-67
2021/08/12 08:19:57;;;;;;;;;14.25;10.00;;;;;25.87;100.00;101590.31;5119068;27;45379;-66
2021/08/12 08:25:44;;;;;;;;;12.00;10.25;;;;;26.12;100.00;101578.84;5118484;27;45322;-67
2021/08/12 08:28:10;;;;;;;;;10.75;10.75;;;;;26.20;100.00;101581.88;5118775;27;45364;-68
2021/08/12 08:30:37;;;;;;;;;10.25;9.00;;;;;26.30;100.00;101582.13;5118728;27;45372;-68
2021/08/12 08:33:03;;;;;;;;;11.75;10.25;;;;;26.52;100.00;101593.16;5119062;27;45355;-66
2021/08/12 08:35:30;;;;;;;;;8.75;8.75;;;;;26.64;100.00;101601.31;5118349;27;46161;-67
2021/08/12 08:37:57;;;;;;;;;11.00;9.00;;;;;26.78;100.00;101604.78;5118420;27;45226;-68
2021/08/12 08:40:23;;;;;;;;;10.25;9.00;;;;;26.85;100.00;101594.47;5118870;27;45390;-68
2021/08/12 08:42:49;;;;;;;;;11.00;10.75;;;;;26.95;100.00;101600.94;5118925;27;45397;-67
2021/08/12 08:45:26;;;;;;;;;7.75;7.25;;;;;27.04;100.00;101597.63;5118628;27;45499;-68
2021/08/12 08:47:52;;;;;;;;;7.50;7.25;;;;;27.15;100.00;101591.50;5118173;27;45299;-67
2021/08/12 08:50:19;;;;;;;;;9.00;9.00;;;;;27.26;100.00;101582.72;5118429;27;45258;-67
2021/08/12 08:52:46;;;;;;;;;10.25;8.00;;;;;27.46;100.00;101592.88;5118962;27;45306;-67
2021/08/12 08:55:23;;;;;;;;;10.25;9.00;;;;;27.63;100.00;101587.22;5118295;27;45340;-67
2021/08/12 08:57:54;;;;;;;;;7.25;7.00;;;;;27.76;100.00;101596.06;5122160;27;45370;-67
2021/08/12 09:00:20;;;;;;;;;8.75;8.75;;;;;27.87;100.00;101592.63;5122045;27;45296;-65
2021/08/12 09:02:47;;;;;;;;;9.00;7.25;;;;;27.98;100.00;101600.72;5122468;27;45304;-67
2021/08/12 09:05:14;;;;;;;;;9.50;8.00;;;;;28.14;100.00;101600.44;5121980;27;46409;-67
2021/08/12 09:07:40;;;;;;;;;8.00;8.00;;;;;28.32;100.00;101599.13;5121733;27;45337;-67
2021/08/12 09:10:06;;;;;;;;;9.00;9.00;;;;;28.52;100.00;101600.28;5121824;27;45354;-67
2021/08/12 09:12:31;;;;;;;;;10.00;9.00;;;;;28.74;100.00;101606.69;5122021;27;45518;-68
2021/08/12 09:15:02;;;;;;;;;9.75;8.25;;;;;28.94;100.00;101619.47;5121816;27;46200;-69
2021/08/12 09:17:29;;;;;;;;;9.25;8.00;;;;;29.08;100.00;101616.59;5121531;27;45357;-67
2021/08/12 09:26:37;;;;;;;;;8.75;8.00;;;;;29.85;100.00;101595.16;5037650;28;45388;-67
2021/08/12 09:29:03;;;;;;;;;9.75;8.00;;;;;30.11;100.00;101595.78;5037577;28;45609;-67
2021/08/12 09:31:28;;;;;;;;;8.75;8.25;;;;;30.42;100.00;101604.81;5038022;28;45321;-67
2021/08/12 09:33:55;;;;;;;;;9.00;8.00;;;;;30.68;100.00;101600.81;5038157;28;45285;-67
2021/08/12 09:36:34;;;;;;;;;9.00;8.75;;;;;31.11;100.00;101602.50;5037673;28;45713;-66
2021/08/12 09:39:20;;;;;;;;;8.50;6.50;;;;;31.64;100.00;101605.88;5038069;28;45470;-67
2021/08/12 09:41:51;;;;;;;;;9.25;8.00;;;;;32.11;100.00;101613.38;5037801;28;45418;-66
2021/08/12 09:44:50;;;;;;;;;10.25;9.00;;;;;32.55;100.00;101609.31;5038315;28;45514;-68
2021/08/12 09:47:28;;;;;;;;;9.00;9.00;;;;;33.05;100.00;101609.97;5037772;28;45593;-67
2021/08/12 09:49:56;;;;;;;;;10.25;9.25;;;;;33.61;100.00;101605.50;5037574;28;45398;-66
2021/08/12 09:52:28;;;;;;;;;12.50;11.50;;;;;34.20;100.00;101599.59;5037648;28;45392;-67
2021/08/12 09:55:19;;;;;;;;;8.25;7.75;;;;;34.99;100.00;101587.88;5037793;28;45430;-67
2021/08/12 09:58:08;;;;;;;;;12.25;10.50;;;;;35.74;98.03;101593.50;4939426;28;46146;-67
2021/08/12 10:00:45;;;;;;;;;8.00;8.00;;;;;36.32;94.02;101585.34;4990574;28;45335;-67
2021/08/12 10:03:22;;;;;;;;;9.00;8.50;;;;;36.99;92.10;101599.63;4997965;28;45571;-68
2021/08/12 10:09:16;;;;;;;;;12.75;10.50;;;;;38.17;84.92;101580.50;4996495;28;45400;-67
2021/08/12 10:11:42;;;;;;;;;9.00;8.00;;;;;38.03;83.99;101587.63;4997386;28;45371;-67
2021/08/12 10:14:09;;;;;;;;;10.00;9.50;;;;;37.77;83.29;101590.66;4997493;28;45295;-67
2021/08/12 10:16:35;;;;;;;;;8.75;8.75;;;;;37.36;81.50;101590.84;4997952;28;45354;-67
2021/08/12 10:19:06;;;;;;;;;8.00;8.00;;;;;36.99;82.71;101585.16;4997375;28;47681;-67
2021/08/12 10:24:53;;;;;;;;;11.50;10.50;;;;;36.70;82.59;101585.69;4997488;28;45445;-66
2021/08/12 10:27:19;;;;;;;;;10.50;9.75;;;;;36.98;82.13;101587.03;4997618;28;45432;-67
2021/08/12 10:29:47;;;;;;;;;10.25;8.75;;;;;37.54;82.64;101587.84;4996905;28;46618;-66
2021/08/12 10:32:15;;;;;;;;;13.50;10.25;;;;;38.09;80.37;101575.13;4997482;28;45267;-67
2021/08/12 10:34:40;;;;;;;;;10.00;10.00;;;;;38.61;79.29;101578.78;5046340;27;45360;-68
2021/08/12 10:41:07;;;;;;;;;10.25;9.25;;;;;39.98;74.36;101565.59;5119541;27;45286;-66
2021/08/12 10:43:34;;;;;;;;;10.00;8.75;;;;;40.70;73.54;101565.38;5120206;27;45248;-66
2021/08/12 10:46:02;;;;;;;;;11.75;10.00;;;;;41.52;70.86;101565.47;5120758;27;45168;-67
2021/08/12 10:48:29;;;;;;;;;11.00;9.00;;;;;42.44;68.41;101577.72;5120881;27;45383;-66
2021/08/12 10:51:01;;;;;;;;;12.25;12.00;;;;;42.71;64.20;101579.41;5120500;27;46564;-66
2021/08/12 10:53:27;;;;;;;;;11.25;10.25;;;;;42.43;62.91;101573.28;5120116;27;45380;-67
2021/08/12 10:55:52;;;;;;;;;10.00;9.00;;;;;42.31;64.30;101574.94;5120092;27;45355;-67
2021/08/12 10:58:18;;;;;;;;;10.25;9.75;;;;;42.41;61.47;101569.91;5120639;27;45375;-67
2021/08/12 11:00:56;;;;;;;;;12.50;11.50;;;;;43.19;60.34;101570.00;5119995;27;46917;-67
2021/08/12 11:03:33;;;;;;;;;8.50;8.50;;;;;44.03;58.26;101572.59;5101458;27;45854;-66
2021/08/12 11:06:08;;;;;;;;;12.50;9.25;;;;;44.80;57.40;101570.47;5120259;27;45398;-66
2021/08/12 11:08:52;;;;;;;;;12.50;10.50;;;;;45.43;53.83;101570.19;5120341;27;45149;-67
2021/08/12 11:11:20;;;;;;;;;10.00;10.00;;;;;45.55;54.11;101576.63;5119818;27;47519;-66
2021/08/12 11:13:46;;;;;;;;;11.00;10.00;;;;;45.70;51.58;101578.97;5120238;27;45598;-66
2021/08/12 11:16:12;;;;;;;;;11.00;10.00;;;;;45.84;50.35;101563.06;5119750;27;45333;-67
2021/08/12 11:18:46;;;;;;;;;8.25;8.25;;;;;46.22;50.65;101568.25;5101420;27;45506;-67
2021/08/12 11:21:30;;;;;;;;;11.50;10.75;;;;;46.50;48.39;101567.56;5119817;27;45540;-67
2021/08/12 11:23:59;;;;;;;;;10.00;9.00;;;;;46.48;48.59;101562.28;5119937;27;45329;-66
2021/08/12 11:26:26;;;;;;;;;13.00;10.50;;;;;46.77;47.13;101563.25;5119967;27;45285;-67
2021/08/12 11:28:54;;;;;;;;;10.75;9.75;;;;;47.23;48.55;101554.03;5120236;27;45247;-66
2021/08/12 11:31:20;;;;;;;;;11.50;10.50;;;;;47.81;47.87;101539.13;5119662;27;46254;-67
2021/08/12 11:33:47;;;;;;;;;9.00;8.00;;;;;48.45;45.85;101541.59;5119395;27;45276;-67
2021/08/12 11:36:21;;;;;;;;;11.25;10.25;;;;;48.93;45.29;101538.16;5119451;27;45351;-67
2021/08/12 11:39:00;;;;;;;;;9.25;8.50;;;;;49.30;43.71;101548.59;5119950;27;45465;-67
2021/08/12 11:41:27;;;;;;;;;10.00;10.00;;;;;49.67;42.15;101551.53;5119239;27;46567;-67
2021/08/12 11:43:54;;;;;;;;;10.50;10.00;;;;;49.84;41.27;101551.41;5119599;27;45870;-67
2021/08/12 11:46:20;;;;;;;;;12.50;10.25;;;;;50.16;41.41;101535.59;5119508;27;45386;-67
2021/08/12 11:48:46;;;;;;;;;10.00;10.00;;;;;50.52;40.45;101536.69;5119920;27;45217;-67
2021/08/12 11:51:13;;;;;;;;;13.25;11.00;;;;;50.47;37.69;101539.41;5119135;27;46519;-67
2021/08/12 11:53:50;;;;;;;;;9.75;9.75;;;;;50.67;35.85;101537.88;5119252;27;45372;-66
2021/08/12 11:56:24;;;;;;;;;8.50;8.50;;;;;51.03;35.64;101536.97;5119430;27;45431;-66
2021/08/12 11:58:52;;;;;;;;;11.00;10.00;;;;;51.31;36.06;101529.25;5119535;27;45283;-66
2021/08/12 12:01:20;;;;;;;;;8.25;8.25;;;;;51.51;36.05;101525.72;5119184;27;45644;-68
2021/08/12 12:03:48;;;;;;;;;10.50;8.50;;;;;51.58;35.69;101523.47;5119449;27;45766;-67
2021/08/12 12:06:29;;;;;;;;;12.75;10.75;;;;;51.06;34.09;101518.91;5100522;27;45432;-68
2021/08/12 12:08:54;;;;;;;;;11.25;10.00;;;;;50.43;34.10;101527.16;5119151;27;45411;-66
2021/08/12 12:11:20;;;;;;;;;12.00;10.25;;;;;49.82;32.45;101521.13;5118999;27;45702;-67
2021/08/12 12:13:45;;;;;;;;;9.75;8.75;;;;;49.46;36.02;101524.63;5118952;27;45359;-68
2021/08/12 12:16:11;;;;;;;;;14.00;10.00;;;;;49.42;35.53;101531.81;5119121;27;45446;-67
2021/08/12 12:18:42;;;;;;;;;10.00;10.00;;;;;49.49;34.49;101527.72;5118976;27;45497;-66
2021/08/12 12:21:13;;;;;;;;;12.75;12.25;;;;;49.85;36.38;101528.09;5118719;27;46477;-67
2021/08/12 12:23:40;;;;;;;;;12.50;11.00;;;;;50.08;31.98;101518.56;5118659;27;45703;-67
2021/08/12 12:26:06;;;;;;;;;10.25;10.00;;;;;50.43;31.93;101512.44;5119140;27;45326;-66
2021/08/12 12:28:39;;;;;;;;;12.25;10.50;;;;;50.76;31.76;101519.59;5119143;27;45297;-65